createdAt,value
2017-12-24T00:00:11.284Z,88.90
2017-12-24T00:02:38.707Z,88.90
2017-12-24T00:05:06.132Z,88.80
2017-12-24T00:07:33.558Z,88.30
2017-12-24T00:10:00.985Z,88.10
2017-12-24T00:12:28.418Z,88.40
2017-12-24T00:14:55.830Z,88.60
2017-12-24T00:17:24.037Z,88.60
2017-12-24T00:19:51.459Z,88.60
2017-12-24T00:22:18.898Z,88.70
2017-12-24T00:24:46.322Z,88.00
2017-12-24T00:27:13.762Z,88.10
2017-12-24T00:29:41.185Z,88.20
2017-12-24T00:32:08.609Z,88.30
2017-12-24T00:34:36.062Z,87.80
2017-12-24T00:37:03.521Z,88.30
2017-12-24T00:39:31.685Z,88.50
2017-12-24T00:41:59.108Z,88.50
2017-12-24T00:44:26.532Z,88.70
2017-12-24T00:46:53.951Z,88.70
2017-12-24T00:49:21.385Z,88.70
2017-12-24T00:51:48.822Z,88.70
2017-12-24T00:54:17.022Z,88.60
2017-12-24T00:56:44.441Z,88.60
2017-12-24T00:59:11.867Z,88.50
2017-12-24T01:01:39.282Z,88.50
2017-12-24T01:04:06.727Z,88.60
2017-12-24T01:06:34.943Z,88.60
2017-12-24T01:09:02.344Z,88.60
2017-12-24T01:11:29.778Z,88.60
2017-12-24T01:13:57.195Z,89.30
2017-12-24T01:16:24.625Z,88.60
2017-12-24T01:18:52.815Z,88.70
2017-12-24T01:21:20.231Z,88.70
2017-12-24T01:23:47.656Z,88.70
2017-12-24T01:26:15.079Z,88.60
2017-12-24T01:28:42.518Z,88.60
2017-12-24T01:31:10.704Z,88.60
2017-12-24T01:33:38.896Z,88.60
2017-12-24T01:36:06.317Z,88.60
2017-12-24T01:38:33.814Z,88.30
2017-12-24T01:41:01.242Z,88.20
2017-12-24T01:43:29.447Z,88.30
2017-12-24T01:45:56.866Z,88.30
2017-12-24T01:48:25.074Z,89.10
2017-12-24T01:50:53.338Z,88.50
2017-12-24T01:53:21.530Z,88.60
2017-12-24T01:55:48.968Z,88.60
2017-12-24T01:58:17.157Z,88.60
2017-12-24T02:00:44.597Z,88.60
2017-12-24T02:03:12.787Z,88.70
2017-12-24T02:05:40.220Z,88.60
2017-12-24T02:08:08.408Z,88.70
2017-12-24T02:10:35.835Z,88.70
2017-12-24T02:13:03.277Z,88.70
2017-12-24T02:15:30.707Z,88.70
2017-12-24T02:17:58.147Z,88.70
2017-12-24T02:20:25.587Z,88.70
2017-12-24T02:22:53.787Z,88.80
2017-12-24T02:25:21.226Z,88.60
2017-12-24T02:27:48.651Z,88.60
2017-12-24T02:30:16.087Z,88.60
2017-12-24T02:32:43.504Z,88.70
2017-12-24T02:35:10.936Z,88.70
2017-12-24T02:37:39.124Z,88.70
2017-12-24T02:40:06.543Z,88.60
2017-12-24T02:42:33.979Z,88.60
2017-12-24T02:45:01.421Z,88.60
2017-12-24T02:47:28.853Z,88.60
2017-12-24T02:49:56.291Z,88.60
2017-12-24T02:52:24.481Z,88.60
2017-12-24T02:54:51.917Z,88.60
2017-12-24T02:57:19.350Z,88.60
2017-12-24T02:59:46.797Z,88.60
2017-12-24T03:02:14.942Z,88.30
2017-12-24T03:04:42.377Z,88.10
2017-12-24T03:07:10.568Z,88.30
2017-12-24T03:09:37.996Z,88.30
2017-12-24T03:12:06.189Z,88.40
2017-12-24T03:14:33.621Z,88.50
2017-12-24T03:17:01.061Z,88.30
2017-12-24T03:19:28.489Z,88.10
2017-12-24T03:21:55.929Z,88.30
2017-12-24T03:24:23.371Z,88.20
2017-12-24T03:26:51.575Z,88.30
2017-12-24T03:29:18.979Z,88.30
2017-12-24T03:31:46.439Z,88.20
2017-12-24T03:34:14.628Z,88.10
2017-12-24T03:36:42.834Z,88.10
2017-12-24T03:39:10.240Z,88.10
2017-12-24T03:41:37.677Z,88.20
2017-12-24T03:44:05.094Z,88.30
2017-12-24T03:46:32.520Z,88.30
2017-12-24T03:49:00.715Z,88.30
2017-12-24T03:51:28.159Z,88.30
2017-12-24T03:53:56.342Z,88.30
2017-12-24T03:56:23.812Z,88.30
2017-12-24T03:58:51.980Z,88.30
2017-12-24T04:01:19.415Z,88.30
2017-12-24T04:03:47.604Z,88.30
2017-12-24T04:06:15.055Z,88.30
2017-12-24T04:08:43.233Z,88.20
2017-12-24T04:11:10.664Z,88.20
2017-12-24T04:13:38.092Z,88.10
2017-12-24T04:16:05.555Z,88.10
2017-12-24T04:18:32.987Z,88.30
2017-12-24T04:21:00.433Z,88.20
2017-12-24T04:23:27.858Z,88.10
2017-12-24T04:25:56.065Z,88.20
2017-12-24T04:28:23.484Z,88.20
2017-12-24T04:30:51.672Z,88.10
2017-12-24T04:33:19.866Z,87.90
2017-12-24T04:35:47.347Z,87.80
2017-12-24T04:38:14.793Z,87.90
2017-12-24T04:40:42.212Z,87.80
2017-12-24T04:43:10.417Z,87.80
2017-12-24T04:45:37.840Z,87.80
2017-12-24T04:48:06.037Z,88.00
2017-12-24T04:50:33.463Z,88.10
2017-12-24T04:53:00.887Z,88.00
2017-12-24T04:55:28.330Z,87.90
2017-12-24T04:57:55.772Z,88.00
2017-12-24T05:00:23.203Z,87.90
2017-12-24T05:02:51.414Z,87.90
2017-12-24T05:05:18.832Z,87.90
2017-12-24T05:07:47.032Z,87.90
2017-12-24T05:10:14.456Z,87.90
2017-12-24T05:12:41.894Z,87.70
2017-12-24T05:15:09.321Z,87.90
2017-12-24T05:17:36.767Z,87.90
2017-12-24T05:20:04.193Z,87.80
2017-12-24T05:22:32.392Z,87.80
2017-12-24T05:24:59.817Z,87.80
2017-12-24T05:27:28.023Z,87.90
2017-12-24T05:29:55.453Z,87.80
2017-12-24T05:32:23.644Z,88.60
2017-12-24T05:34:51.073Z,87.80
2017-12-24T05:37:18.513Z,87.70
2017-12-24T05:39:45.977Z,87.80
2017-12-24T05:42:13.413Z,87.80
2017-12-24T05:44:40.842Z,87.80
2017-12-24T05:47:08.276Z,87.90
2017-12-24T05:49:36.526Z,87.80
2017-12-24T05:52:03.895Z,88.50
2017-12-24T05:54:32.075Z,87.80
2017-12-24T05:57:00.270Z,87.80
2017-12-24T05:59:28.473Z,87.80
2017-12-24T06:01:55.901Z,87.80
2017-12-24T06:04:23.344Z,87.60
2017-12-24T06:06:51.543Z,87.80
2017-12-24T06:09:18.987Z,87.80
2017-12-24T06:11:46.417Z,87.80
2017-12-24T06:14:13.850Z,87.80
2017-12-24T06:16:41.285Z,87.80
2017-12-24T06:19:08.726Z,87.80
2017-12-24T06:21:36.169Z,87.70
2017-12-24T06:24:04.369Z,87.80
2017-12-24T06:26:31.787Z,87.80
2017-12-24T06:29:00.005Z,87.70
2017-12-24T06:31:27.433Z,87.70
2017-12-24T06:33:54.873Z,87.80
2017-12-24T06:36:23.056Z,87.80
2017-12-24T06:38:50.479Z,87.80
2017-12-24T06:41:17.898Z,87.50
2017-12-24T06:43:45.323Z,87.70
2017-12-24T06:46:13.537Z,87.70
2017-12-24T06:48:40.938Z,87.70
2017-12-24T06:51:09.123Z,87.70
2017-12-24T06:53:37.340Z,87.70
2017-12-24T06:56:04.748Z,87.70
2017-12-24T06:58:32.955Z,87.70
2017-12-24T07:01:00.387Z,87.70
2017-12-24T07:03:28.596Z,87.80
2017-12-24T07:05:56.013Z,87.80
2017-12-24T07:08:24.219Z,87.80
2017-12-24T07:10:51.643Z,87.80
2017-12-24T07:13:19.844Z,87.70
2017-12-24T07:15:47.312Z,87.70
2017-12-24T07:18:14.696Z,87.80
2017-12-24T07:20:42.134Z,87.80
2017-12-24T07:23:09.555Z,87.70
2017-12-24T07:25:37.745Z,87.70
2017-12-24T07:28:05.179Z,87.70
2017-12-24T07:30:33.370Z,87.80
2017-12-24T07:33:00.792Z,87.70
2017-12-24T07:35:28.211Z,87.70
2017-12-24T07:37:55.634Z,87.70
2017-12-24T07:40:23.067Z,87.70
2017-12-24T07:42:50.497Z,87.60
2017-12-24T07:45:17.935Z,87.80
2017-12-24T07:47:45.355Z,87.80
2017-12-24T07:50:13.568Z,87.80
2017-12-24T07:52:40.997Z,87.80
2017-12-24T07:55:09.187Z,87.90
2017-12-24T07:57:36.622Z,87.80
2017-12-24T08:00:04.831Z,87.70
2017-12-24T08:02:32.253Z,87.70
2017-12-24T08:05:00.459Z,87.60
2017-12-24T08:07:27.898Z,87.60
2017-12-24T08:09:55.329Z,87.80
2017-12-24T08:12:22.785Z,87.70
2017-12-24T08:14:50.984Z,87.80
2017-12-24T08:17:18.400Z,87.90
2017-12-24T08:19:45.822Z,87.80
2017-12-24T08:22:13.262Z,87.80
2017-12-24T08:24:40.702Z,87.80
2017-12-24T08:27:08.902Z,87.80
2017-12-24T08:29:36.342Z,87.80
2017-12-24T08:32:03.776Z,87.70
2017-12-24T08:34:31.982Z,87.80
2017-12-24T08:36:59.415Z,87.70
2017-12-24T08:39:27.626Z,87.70
2017-12-24T08:41:55.054Z,87.60
2017-12-24T08:44:22.493Z,87.70
2017-12-24T08:46:50.719Z,87.50
2017-12-24T08:49:18.162Z,87.50
2017-12-24T08:51:45.587Z,87.50
2017-12-24T08:54:13.781Z,87.70
2017-12-24T08:56:41.217Z,87.60
2017-12-24T08:59:09.417Z,87.60
2017-12-24T09:01:36.850Z,87.60
2017-12-24T09:04:05.054Z,87.60
2017-12-24T09:06:32.501Z,87.60
2017-12-24T09:08:59.929Z,87.70
2017-12-24T09:11:27.370Z,87.70
2017-12-24T09:13:54.803Z,87.70
2017-12-24T09:16:22.257Z,87.60
2017-12-24T09:18:49.694Z,87.60
2017-12-24T09:21:17.141Z,87.70
2017-12-24T09:23:44.578Z,87.40
2017-12-24T09:26:12.795Z,87.50
2017-12-24T09:28:40.229Z,87.50
2017-12-24T09:31:07.668Z,87.60
2017-12-24T09:33:35.851Z,87.50
2017-12-24T09:36:03.299Z,87.50
2017-12-24T09:38:31.505Z,87.50
2017-12-24T09:40:58.952Z,87.50
2017-12-24T09:43:26.386Z,87.50
2017-12-24T09:45:54.585Z,87.40
2017-12-24T09:48:22.028Z,87.40
2017-12-24T09:50:50.234Z,87.40
2017-12-24T09:53:17.670Z,87.40
2017-12-24T09:55:45.119Z,87.40
2017-12-24T09:58:13.314Z,87.30
2017-12-24T10:00:40.745Z,87.30
2017-12-24T10:03:08.952Z,87.40
2017-12-24T10:05:36.394Z,87.30
2017-12-24T10:08:03.841Z,87.50
2017-12-24T10:10:31.295Z,87.40
2017-12-24T10:12:59.489Z,87.40
2017-12-24T10:15:26.921Z,87.40
2017-12-24T10:17:55.131Z,87.40
2017-12-24T10:20:22.558Z,87.40
2017-12-24T10:22:50.769Z,87.20
2017-12-24T10:25:18.188Z,87.20
2017-12-24T10:27:46.391Z,87.30
2017-12-24T10:30:13.814Z,87.30
2017-12-24T10:32:42.008Z,86.80
2017-12-24T10:35:09.423Z,86.80
2017-12-24T10:37:36.857Z,87.80
2017-12-24T10:40:04.354Z,87.20
2017-12-24T10:42:32.562Z,87.20
2017-12-24T10:44:59.994Z,87.20
2017-12-24T10:47:28.199Z,87.00
2017-12-24T10:49:55.630Z,87.00
2017-12-24T10:52:23.069Z,87.00
2017-12-24T10:54:50.498Z,87.00
2017-12-24T10:57:17.930Z,87.00
2017-12-24T10:59:45.355Z,87.00
2017-12-24T11:02:12.801Z,87.00
2017-12-24T11:04:41.002Z,87.20
2017-12-24T11:07:08.437Z,87.10
2017-12-24T11:09:36.632Z,87.10
2017-12-24T11:12:04.074Z,87.10
2017-12-24T11:14:32.276Z,87.00
2017-12-24T11:16:59.707Z,86.90
2017-12-24T11:19:27.901Z,86.70
2017-12-24T11:21:55.345Z,86.70
2017-12-24T11:24:22.773Z,86.40
2017-12-24T11:26:50.229Z,86.50
2017-12-24T11:29:17.657Z,86.80
2017-12-24T11:31:45.096Z,86.90
2017-12-24T11:34:12.525Z,86.80
2017-12-24T11:36:39.968Z,86.70
2017-12-24T11:39:08.164Z,86.90
2017-12-24T11:41:35.588Z,86.80
2017-12-24T11:44:03.011Z,86.80
2017-12-24T11:46:30.456Z,87.00
2017-12-24T11:48:57.890Z,87.00
2017-12-24T11:51:26.090Z,87.00
2017-12-24T11:53:53.515Z,87.00
2017-12-24T11:56:20.934Z,87.00
2017-12-24T11:58:48.378Z,86.90
2017-12-24T12:01:15.823Z,86.90
2017-12-24T12:03:43.275Z,86.90
2017-12-24T12:06:10.706Z,87.00
2017-12-24T12:08:38.147Z,86.90
2017-12-24T12:11:05.599Z,86.90
2017-12-24T12:13:33.014Z,86.50
2017-12-24T12:16:00.449Z,86.80
2017-12-24T12:18:27.882Z,86.70
2017-12-24T12:20:55.318Z,86.60
2017-12-24T12:23:22.748Z,86.50
2017-12-24T12:25:50.180Z,86.40
2017-12-24T12:28:17.622Z,86.80
2017-12-24T12:30:45.058Z,86.80
2017-12-24T12:33:13.272Z,86.60
2017-12-24T12:35:40.693Z,86.60
2017-12-24T12:38:08.899Z,86.10
2017-12-24T12:40:36.330Z,86.10
2017-12-24T12:43:03.759Z,86.10
2017-12-24T12:45:31.198Z,86.20
2017-12-24T12:47:58.641Z,86.20
2017-12-24T12:50:26.059Z,86.50
2017-12-24T12:52:53.512Z,86.10
2017-12-24T12:55:21.702Z,86.30
2017-12-24T12:57:49.126Z,86.30
2017-12-24T13:00:17.331Z,86.40
2017-12-24T13:02:44.773Z,86.40
2017-12-24T13:05:12.974Z,86.70
2017-12-24T13:07:40.401Z,86.60
2017-12-24T13:10:08.610Z,86.60
2017-12-24T13:12:36.048Z,86.70
2017-12-24T13:15:03.488Z,86.60
2017-12-24T13:17:31.726Z,86.60
2017-12-24T13:19:59.118Z,86.60
2017-12-24T13:22:27.337Z,86.60
2017-12-24T13:24:54.770Z,86.60
2017-12-24T13:27:22.201Z,86.40
2017-12-24T13:29:50.421Z,87.20
2017-12-24T13:32:17.841Z,86.50
2017-12-24T13:34:46.049Z,86.00
2017-12-24T13:37:13.541Z,86.00
2017-12-24T13:39:40.973Z,86.30
2017-12-24T13:42:08.388Z,85.50
2017-12-24T13:44:36.598Z,85.60
2017-12-24T13:47:04.058Z,85.50
2017-12-24T13:49:31.519Z,86.00
2017-12-24T13:51:58.983Z,85.50
2017-12-24T13:54:26.424Z,86.00
2017-12-24T13:56:53.854Z,86.20
2017-12-24T13:59:21.293Z,86.10
2017-12-24T14:01:49.489Z,85.90
2017-12-24T14:04:16.921Z,85.80
2017-12-24T14:06:45.122Z,85.40
2017-12-24T14:09:12.559Z,85.50
2017-12-24T14:11:40.757Z,86.00
2017-12-24T14:14:08.192Z,85.90
2017-12-24T14:16:36.421Z,86.00
2017-12-24T14:19:03.867Z,86.10
2017-12-24T14:21:31.294Z,86.10
2017-12-24T14:23:58.724Z,85.90
2017-12-24T14:26:26.151Z,85.90
2017-12-24T14:28:53.595Z,85.70
2017-12-24T14:31:21.023Z,85.80
2017-12-24T14:33:48.445Z,86.00
2017-12-24T14:36:15.890Z,85.30
2017-12-24T14:38:43.341Z,84.60
2017-12-24T14:41:11.540Z,84.90
2017-12-24T14:43:38.970Z,85.30
2017-12-24T14:46:06.401Z,84.60
2017-12-24T14:48:33.829Z,85.30
2017-12-24T14:51:02.038Z,85.30
2017-12-24T14:53:29.476Z,85.30
2017-12-24T14:55:56.917Z,85.00
2017-12-24T14:58:25.108Z,85.50
2017-12-24T15:00:52.549Z,85.50
2017-12-24T15:03:20.877Z,85.50
2017-12-24T15:05:48.317Z,85.50
2017-12-24T15:08:15.755Z,85.70
2017-12-24T15:10:43.196Z,84.50
2017-12-24T15:13:11.402Z,86.00
2017-12-24T15:15:38.840Z,85.10
2017-12-24T15:18:06.270Z,84.90
2017-12-24T15:20:34.496Z,83.60
2017-12-24T15:23:01.935Z,83.70
2017-12-24T15:25:29.370Z,84.10
2017-12-24T15:27:57.571Z,85.10
2017-12-24T15:30:25.001Z,85.10
2017-12-24T15:32:53.199Z,85.20
2017-12-24T15:35:20.638Z,85.20
2017-12-24T15:37:48.845Z,84.90
2017-12-24T15:40:16.282Z,84.90
2017-12-24T15:42:43.706Z,84.70
2017-12-24T15:45:11.151Z,84.30
2017-12-24T15:47:38.583Z,84.30
2017-12-24T15:50:06.030Z,84.50
2017-12-24T15:52:33.514Z,84.40
2017-12-24T15:55:01.035Z,84.70
2017-12-24T15:57:28.452Z,85.20
2017-12-24T15:59:55.876Z,85.40
2017-12-24T16:02:23.304Z,85.00
2017-12-24T16:04:50.731Z,85.00
2017-12-24T16:07:18.157Z,85.30
2017-12-24T16:09:45.587Z,84.80
2017-12-24T16:12:13.029Z,85.10
2017-12-24T16:14:40.457Z,85.20
2017-12-24T16:17:08.660Z,85.30
2017-12-24T16:19:36.084Z,85.30
2017-12-24T16:22:03.519Z,85.20
2017-12-24T16:24:30.945Z,85.40
2017-12-24T16:26:58.380Z,85.40
2017-12-24T16:29:25.801Z,85.50
2017-12-24T16:31:53.241Z,86.30
2017-12-24T16:34:20.678Z,85.60
2017-12-24T16:36:48.113Z,85.80
2017-12-24T16:39:15.538Z,85.60
2017-12-24T16:41:43.737Z,85.90
2017-12-24T16:44:11.152Z,85.80
2017-12-24T16:46:38.584Z,86.00
2017-12-24T16:49:06.019Z,85.90
2017-12-24T16:51:33.436Z,86.00
2017-12-24T16:54:01.637Z,85.90
2017-12-24T16:56:29.068Z,85.90
2017-12-24T16:58:57.247Z,86.00
2017-12-24T17:01:25.465Z,85.70
2017-12-24T17:03:52.888Z,85.70
2017-12-24T17:06:21.080Z,85.60
2017-12-24T17:08:48.499Z,85.60
2017-12-24T17:11:15.924Z,85.60
2017-12-24T17:13:43.343Z,85.20
2017-12-24T17:16:10.771Z,85.50
2017-12-24T17:18:38.191Z,85.60
2017-12-24T17:21:05.625Z,85.70
2017-12-24T17:23:33.066Z,85.60
2017-12-24T17:26:01.243Z,85.60
2017-12-24T17:28:28.717Z,85.60
2017-12-24T17:30:56.876Z,85.60
2017-12-24T17:33:24.309Z,85.70
2017-12-24T17:35:52.505Z,85.60
2017-12-24T17:38:20.710Z,85.40
2017-12-24T17:40:48.137Z,85.40
2017-12-24T17:43:15.581Z,85.40
2017-12-24T17:45:43.792Z,85.60
2017-12-24T17:48:11.239Z,85.60
2017-12-24T17:50:38.670Z,85.40
2017-12-24T17:53:06.894Z,85.50
2017-12-24T17:55:34.322Z,85.50
2017-12-24T17:58:01.750Z,85.40
2017-12-24T18:00:29.928Z,85.60
2017-12-24T18:02:58.148Z,85.40
2017-12-24T18:05:25.572Z,85.30
2017-12-24T18:07:53.779Z,85.60
2017-12-24T18:10:21.210Z,85.60
2017-12-24T18:12:48.698Z,85.60
2017-12-24T18:15:16.077Z,85.50
2017-12-24T18:17:43.502Z,85.60
2017-12-24T18:20:10.937Z,85.20
2017-12-24T18:22:38.369Z,85.30
2017-12-24T18:25:06.564Z,85.40
2017-12-24T18:27:33.992Z,85.40
2017-12-24T18:30:01.425Z,85.40
2017-12-24T18:32:28.865Z,85.40
2017-12-24T18:34:56.314Z,85.40
2017-12-24T18:37:23.749Z,84.90
2017-12-24T18:39:51.172Z,85.00
2017-12-24T18:42:18.643Z,85.30
2017-12-24T18:44:46.818Z,85.10
2017-12-24T18:47:15.020Z,85.20
2017-12-24T18:49:42.478Z,85.20
2017-12-24T18:52:09.911Z,84.70
2017-12-24T18:54:38.122Z,85.00
2017-12-24T18:57:05.543Z,85.00
2017-12-24T18:59:33.746Z,85.10
2017-12-24T19:02:01.183Z,85.10
2017-12-24T19:04:29.377Z,85.10
2017-12-24T19:06:56.812Z,85.10
2017-12-24T19:09:25.000Z,85.00
2017-12-24T19:11:52.424Z,85.00
2017-12-24T19:14:19.865Z,85.10
2017-12-24T19:16:47.297Z,85.10
2017-12-24T19:19:14.742Z,85.10
2017-12-24T19:21:42.174Z,85.00
2017-12-24T19:24:10.408Z,85.00
2017-12-24T19:26:37.835Z,85.00
2017-12-24T19:29:05.269Z,85.00
2017-12-24T19:31:32.699Z,84.50
2017-12-24T19:34:00.891Z,84.40
2017-12-24T19:36:29.085Z,84.40
2017-12-24T19:38:56.526Z,84.40
2017-12-24T19:41:24.731Z,84.60
2017-12-24T19:43:52.170Z,84.60
2017-12-24T19:46:19.605Z,83.90
2017-12-24T19:48:47.805Z,83.90
2017-12-24T19:51:15.235Z,83.90
2017-12-24T19:53:43.472Z,84.10
2017-12-24T19:56:10.890Z,84.80
2017-12-24T19:58:38.324Z,84.00
2017-12-24T20:01:06.509Z,83.50
2017-12-24T20:03:33.954Z,83.40
2017-12-24T20:06:02.148Z,84.00
2017-12-24T20:08:29.607Z,83.90
2017-12-24T20:10:57.028Z,84.30
2017-12-24T20:13:24.457Z,84.00
2017-12-24T20:15:51.912Z,84.30
2017-12-24T20:18:19.341Z,84.00
2017-12-24T20:20:46.779Z,84.30
2017-12-24T20:23:14.963Z,84.50
2017-12-24T20:25:42.388Z,84.60
2017-12-24T20:28:09.877Z,84.10
2017-12-24T20:30:37.305Z,84.40
2017-12-24T20:33:04.741Z,84.40
2017-12-24T20:35:32.192Z,84.30
2017-12-24T20:37:59.614Z,84.50
2017-12-24T20:40:27.057Z,84.10
2017-12-24T20:42:55.242Z,84.00
2017-12-24T20:45:22.664Z,84.00
2017-12-24T20:47:50.869Z,84.30
2017-12-24T20:50:18.301Z,84.30
2017-12-24T20:52:46.507Z,84.40
2017-12-24T20:55:13.932Z,84.40
2017-12-24T20:57:42.116Z,84.50
2017-12-24T21:00:10.327Z,84.50
2017-12-24T21:02:37.763Z,84.40
2017-12-24T21:05:05.190Z,84.50
2017-12-24T21:07:33.415Z,84.50
2017-12-24T21:10:00.844Z,84.50
2017-12-24T21:12:28.296Z,84.40
2017-12-24T21:14:55.732Z,84.50
2017-12-24T21:17:23.143Z,84.30
2017-12-24T21:19:50.598Z,84.00
2017-12-24T21:22:18.028Z,84.40
2017-12-24T21:24:45.461Z,84.40
2017-12-24T21:29:41.098Z,84.30
2017-12-24T21:32:09.296Z,84.20
2017-12-24T21:34:36.752Z,84.10
2017-12-24T21:37:04.186Z,84.20
2017-12-24T21:39:32.377Z,84.30
2017-12-24T21:41:59.822Z,84.30
2017-12-24T21:44:28.022Z,83.90
2017-12-24T21:46:55.461Z,83.90
2017-12-24T21:49:23.657Z,83.30
2017-12-24T21:51:51.097Z,83.20
2017-12-24T21:54:18.572Z,81.80
2017-12-24T21:56:46.758Z,83.00
2017-12-24T21:59:14.193Z,83.10
2017-12-24T22:01:41.634Z,82.90
2017-12-24T22:04:09.829Z,83.50
2017-12-24T22:06:37.263Z,83.50
2017-12-24T22:09:05.456Z,82.20
2017-12-24T22:11:32.883Z,82.20
2017-12-24T22:14:01.086Z,82.40
2017-12-24T22:16:28.535Z,82.40
2017-12-24T22:18:56.743Z,82.50
2017-12-24T22:21:24.183Z,82.50
2017-12-24T22:23:51.594Z,81.60
2017-12-24T22:26:19.033Z,81.30
2017-12-24T22:28:46.468Z,81.80
2017-12-24T22:31:13.898Z,81.80
2017-12-24T22:33:41.334Z,81.40
2017-12-24T22:36:09.543Z,82.80
2017-12-24T22:38:36.965Z,82.80
2017-12-24T22:41:05.174Z,83.10
2017-12-24T22:43:32.609Z,83.10
2017-12-24T22:46:00.823Z,82.40
2017-12-24T22:48:28.253Z,82.40
2017-12-24T22:50:55.690Z,82.80
2017-12-24T22:53:23.885Z,83.30
2017-12-24T22:55:51.321Z,83.30
2017-12-24T22:58:19.517Z,82.90
2017-12-24T23:00:46.957Z,82.90
2017-12-24T23:03:15.161Z,82.90
2017-12-24T23:05:42.576Z,82.80
2017-12-24T23:08:10.786Z,82.80
2017-12-24T23:10:38.216Z,82.80
2017-12-24T23:13:06.422Z,83.10
2017-12-24T23:15:33.850Z,83.10
2017-12-24T23:18:02.050Z,82.50
2017-12-24T23:20:29.472Z,82.50
2017-12-24T23:22:57.687Z,83.00
2017-12-24T23:25:25.141Z,83.00
2017-12-24T23:27:52.581Z,83.20
2017-12-24T23:30:20.777Z,83.10
2017-12-24T23:32:48.214Z,83.10
2017-12-24T23:35:15.697Z,83.20
2017-12-24T23:37:43.124Z,83.30
2017-12-24T23:40:11.319Z,82.80
2017-12-24T23:42:38.754Z,82.80
2017-12-24T23:45:06.947Z,83.30
2017-12-24T23:47:34.414Z,83.30
2017-12-24T23:50:01.849Z,83.20
2017-12-24T23:52:30.052Z,83.10
2017-12-24T23:54:57.486Z,83.10
2017-12-24T23:57:24.923Z,83.00
2017-12-24T23:59:53.113Z,82.30
